SCULL ISLAND AK US NWS current weather conditions

sailwx.info

Wind from 020 at 14 knots gusting 20

Air temperature -6.9° C
Dewpoint -11.4° C

Last reported at 2020-Jan-18 13:33 UTC.
Time now 2020-Jan-18 14:12 UTC

Location: N 58°12' W 134°39'.
View on Google Maps.

See reports from other nearby stations

  
Tides and Currents Weather Stations Pressure Air Temp Water Temp Dewpoint Dewpoint Depression Visibility Wind Speed Wind Dir Waves Ship Positions
date/time (UTC)wind fromknots sea level pressurealtimeterstation pressurevisibilityair tempwater tempwave heightnotes
2020-Jan-18 13:33 020 14 gusting 20 -6.9
2020-Jan-18 13:23 010 17 gusting 24 -6.9
2020-Jan-18 13:13 010 19 gusting 25 -6.9
2020-Jan-18 13:02 010 17 gusting 24 -7.0
2020-Jan-18 12:52 010 20 gusting 26 -6.9
2020-Jan-18 12:42 010 18 gusting 24 -6.9
2020-Jan-18 12:32 360 17 gusting 24 -7.2
2020-Jan-18 12:22 360 18 gusting 26 -7.1
2020-Jan-18 12:12 360 20 gusting 25 -7.3
2020-Jan-18 12:02 350 20 gusting 25 -7.3
2020-Jan-18 11:52 360 20 gusting 26 -7.2
2020-Jan-18 11:42 360 19 gusting 26 -7.3
2020-Jan-18 11:32 360 18 gusting 27 -7.3
2020-Jan-18 11:22 360 18 gusting 25 -7.3
2020-Jan-18 11:13 010 15 gusting 22 -7.4
2020-Jan-18 11:02 010 17 gusting 21 -7.6
2020-Jan-18 10:52 010 15 gusting 20 -7.7
2020-Jan-18 10:42 010 15 gusting 20 -7.6
2020-Jan-18 10:32 010 17 gusting 24 -7.6
2020-Jan-18 10:23 360 13 gusting 20 -7.8
2020-Jan-18 10:13 360 15 gusting 21 -7.9
2020-Jan-18 10:02 360 17 gusting 21 -7.9
2020-Jan-18 09:52 360 14 gusting 21 -7.7
2020-Jan-18 09:42 360 13 gusting 20 -7.7
2020-Jan-18 09:33 360 8 gusting 13 -7.9
2020-Jan-18 09:22 360 13 gusting 18 -7.9
2020-Jan-18 09:13 360 12 gusting 17 -7.8
2020-Jan-18 09:02 360 15 gusting 20 -8.0
2020-Jan-18 08:52 350 13 gusting 20 -7.9
2020-Jan-18 08:42 360 9 gusting 14 -7.7
2020-Jan-18 08:32 350 11 gusting 18 -7.8
2020-Jan-18 08:23 340 12 gusting 19 -7.7
2020-Jan-18 08:12 020 7 gusting 13 -7.7
2020-Jan-18 08:02 050 8 gusting 17 -7.6
2020-Jan-18 07:52 020 6 gusting 13 -7.7
2020-Jan-18 07:42 050 6 gusting 11 -7.8
2020-Jan-18 07:33 080 5 gusting 13 -7.7
2020-Jan-18 07:23 080 6 gusting 13 -7.8
2020-Jan-18 07:13 050 6 gusting 11 -7.9
2020-Jan-18 07:03 080 7 gusting 13 -7.9
2020-Jan-18 06:52 080 8 gusting 18 -8.0
2020-Jan-18 06:42 110 4 gusting 8 -8.2
2020-Jan-18 06:32 100 6 gusting 11 -8.3
2020-Jan-18 06:22 110 5 gusting 12 -8.3
2020-Jan-18 06:12 110 5 gusting 8 -8.1
2020-Jan-18 06:03 090 6 gusting 12 -8.1
2020-Jan-18 05:52 100 4 gusting 6 -8.1
2020-Jan-18 05:42 120 7 gusting 12 -8.3
2020-Jan-18 05:32 090 9 gusting 13 -8.0
2020-Jan-18 05:22 100 8 gusting 14 -8.2
2020-Jan-18 05:12 130 6 gusting 12 -8.4
2020-Jan-18 05:02 120 9 gusting 14 -8.4
2020-Jan-18 04:52 110 9 gusting 14 -8.2
2020-Jan-18 04:42 120 9 gusting 13 -8.3
2020-Jan-18 04:32 110 9 gusting 13 -8.4
2020-Jan-18 04:23 110 8 gusting 14 -8.3
2020-Jan-18 04:12 130 9 gusting 13 -8.4
2020-Jan-18 04:02 100 11 gusting 14 -8.1
2020-Jan-18 03:52 100 6 gusting 12 -8.1
2020-Jan-18 03:42 120 9 gusting 13 -8.3
2020-Jan-18 03:32 090 8 gusting 14 -8.2
2020-Jan-18 03:22 090 9 gusting 13 -8.2
2020-Jan-18 03:12 100 8 gusting 13 -8.1
2020-Jan-18 03:02 080 8 gusting 17 -8.1
2020-Jan-18 02:53 080 7 gusting 12 -8.2
2020-Jan-18 02:43 090 9 gusting 14 -8.2
2020-Jan-18 02:33 090 9 gusting 14 -8.3
2020-Jan-18 02:22 090 11 gusting 14 -8.3
2020-Jan-18 02:12 090 12 gusting 17 -8.3
2020-Jan-18 02:03 080 11 gusting 15 -8.4
2020-Jan-18 01:52 080 13 gusting 19 -8.3
2020-Jan-18 01:42 090 13 gusting 18 -8.2
2020-Jan-18 01:33 100 13 gusting 17 -8.2
2020-Jan-18 01:23 090 11 gusting 19 -8.1
2020-Jan-18 01:13 080 8 gusting 14 -8.0
2020-Jan-18 01:03 100 8 gusting 13 -8.2
2020-Jan-18 00:53 100 12 gusting 14 -8.1
2020-Jan-18 00:42 090 12 gusting 14 -8.2
2020-Jan-18 00:32 090 12 gusting 18 -8.2
2020-Jan-18 00:22 100 9 gusting 18 -8.1
2020-Jan-18 00:12 090 11 gusting 17 -8.1
2020-Jan-17 23:52 100 9 gusting 15 -8.1
2020-Jan-17 23:42 090 9 gusting 15 -8.2
2020-Jan-17 23:33 090 11 gusting 18 -8.1
2020-Jan-17 23:22 100 12 gusting 17 -8.1
2020-Jan-17 23:13 090 8 gusting 17 -8.2
2020-Jan-17 23:02 100 11 gusting 17 -8.2
2020-Jan-17 22:52 090 13 gusting 18 -8.2
2020-Jan-17 22:42 090 11 gusting 17 -8.3
2020-Jan-17 22:33 080 11 gusting 19 -8.3
2020-Jan-17 22:23 090 13 gusting 18 -8.4
2020-Jan-17 22:13 090 12 gusting 17 -8.3
2020-Jan-17 22:02 080 13 gusting 18 -8.4
2020-Jan-17 21:52 090 13 gusting 19 -8.3
2020-Jan-17 21:43 080 11 gusting 19 -8.3
2020-Jan-17 21:33 070 9 gusting 17 -8.5
2020-Jan-17 21:22 080 11 gusting 19 -8.6
2020-Jan-17 21:13 080 11 gusting 15 -8.6
2020-Jan-17 21:03 080 11 gusting 15 -8.6
2020-Jan-17 20:53 090 12 gusting 18 -8.6
2020-Jan-17 20:43 090 13 gusting 19 -8.7
2020-Jan-17 20:33 080 12 gusting 15 -8.7
2020-Jan-17 20:23 080 13 gusting 18 -8.8
2020-Jan-17 20:13 090 13 gusting 20 -8.9
2020-Jan-17 20:03 080 14 gusting 20 -8.6
2020-Jan-17 19:52 090 14 gusting 21 -8.9
2020-Jan-17 19:43 090 13 gusting 20 -8.9
2020-Jan-17 19:33 080 14 gusting 24 -9.0
2020-Jan-17 19:23 080 13 gusting 20 -8.9
2020-Jan-17 19:13 090 12 gusting 20 -9.0
2020-Jan-17 19:02 080 13 gusting 20 -9.0
2020-Jan-17 18:53 080 15 gusting 21 -9.1
2020-Jan-17 18:43 080 14 gusting 20 -9.1
2020-Jan-17 18:33 090 13 gusting 20 -9.1
2020-Jan-17 18:23 080 14 gusting 22 -9.0
2020-Jan-17 18:13 080 14 gusting 24 -9.0
2020-Jan-17 18:03 080 17 gusting 24 -9.0
2020-Jan-17 17:53 070 14 gusting 20 -9.0
2020-Jan-17 17:43 070 14 gusting 24 -8.9
2020-Jan-17 17:33 070 14 gusting 22 -9.0
2020-Jan-17 17:22 070 14 gusting 25 -9.0
2020-Jan-17 17:13 080 13 gusting 24 -9.0
2020-Jan-17 17:03 070 14 gusting 20 -9.1
2020-Jan-17 16:53 070 13 gusting 21 -9.0
2020-Jan-17 16:43 070 18 gusting 22 -9.1
2020-Jan-17 16:33 070 14 gusting 22 -9.0
2020-Jan-17 16:23 070 15 gusting 21 -9.2
2020-Jan-17 16:13 080 15 gusting 26 -9.1
2020-Jan-17 16:03 070 15 gusting 21 -9.0
2020-Jan-17 15:53 070 19 gusting 26 -8.9
2020-Jan-17 15:43 080 17 gusting 25 -8.8
2020-Jan-17 15:33 070 15 gusting 24 -8.9
2020-Jan-17 15:23 070 18 gusting 28 -8.9
2020-Jan-17 15:13 060 21 gusting 27 -8.8
2020-Jan-17 15:03 070 19 gusting 26 -8.7
2020-Jan-17 14:53 080 19 gusting 27 -8.8
2020-Jan-17 14:43 070 22 gusting 34 -9.0
2020-Jan-17 14:33 070 18 gusting 27 -8.9
2020-Jan-17 14:23 080 14 gusting 24 -9.0
2020-Jan-17 14:13 060 17 gusting 27 -8.9
2020-Jan-17 14:03 060 20 gusting 28 -8.9
2020-Jan-17 13:53 060 20 gusting 28 -8.8
2020-Jan-17 13:43 060 21 gusting 29 -9.0
2020-Jan-17 13:33 060 22 gusting 33 -8.8
2020-Jan-17 13:23 060 22 gusting 32 -8.9
2020-Jan-17 13:13 060 21 gusting 32 -8.6
2020-Jan-17 13:03 070 21 gusting 29 -8.6
2020-Jan-17 12:52 060 22 gusting 35 -8.6
2020-Jan-17 12:42 060 19 gusting 27 -8.7
2020-Jan-17 12:32 080 20 gusting 28 -8.7
2020-Jan-17 12:22 070 20 gusting 33 -8.8
2020-Jan-17 12:12 070 20 gusting 27 -8.7
2020-Jan-17 12:02 070 20 gusting 29 -8.9
2020-Jan-17 11:52 080 19 gusting 28 -8.7
2020-Jan-17 11:42 060 20 gusting 35 -8.7
2020-Jan-17 11:32 070 20 gusting 35 -8.6
2020-Jan-17 11:22 090 20 gusting 28 -8.9
2020-Jan-17 11:12 090 19 gusting 28 -8.7
2020-Jan-17 11:02 100 18 gusting 29 -9.1
2020-Jan-17 10:52 100 19 gusting 27 -8.9
2020-Jan-17 10:42 090 15 gusting 24 -8.8
2020-Jan-17 10:32 090 19 gusting 29 -8.9
2020-Jan-17 10:23 100 21 gusting 29 -9.1
2020-Jan-17 10:13 090 21 gusting 31 -8.8
2020-Jan-17 10:02 100 21 gusting 29 -9.2
2020-Jan-17 09:52 110 21 gusting 29 -9.1
2020-Jan-17 09:42 100 26 gusting 34 -8.9
2020-Jan-17 09:33 090 27 gusting 34 -8.8
2020-Jan-17 09:22 090 27 gusting 38 -9.0
2020-Jan-17 09:12 090 27 gusting 38 -8.7
2020-Jan-17 09:02 090 26 gusting 35 -9.1
2020-Jan-17 08:52 080 26 gusting 34 -8.9
2020-Jan-17 08:43 090 26 gusting 34 -8.7
2020-Jan-17 08:32 080 25 gusting 33 -8.3
2020-Jan-17 08:22 070 26 gusting 38 -8.5
2020-Jan-17 08:12 080 22 gusting 32 -8.5
2020-Jan-17 08:02 080 20 gusting 34 -8.6
2020-Jan-17 07:52 070 21 gusting 33 -8.6
2020-Jan-17 07:42 080 24 gusting 29 -8.5
2020-Jan-17 07:33 080 21 gusting 40 -8.5
2020-Jan-17 07:23 060 22 gusting 31 -8.4
2020-Jan-17 07:13 070 20 gusting 33 -8.1
2020-Jan-17 07:02 070 20 gusting 27 -8.2
2020-Jan-17 06:52 070 18 gusting 26 -8.3
2020-Jan-17 06:42 050 20 gusting 28 -8.4
2020-Jan-17 06:32 060 21 gusting 28 -8.1
2020-Jan-17 06:22 070 20 gusting 28 -8.1
2020-Jan-17 06:12 080 17 gusting 28 -8.2
2020-Jan-17 06:02 080 13 gusting 25 -8.3
2020-Jan-17 05:52 060 13 gusting 22 -8.2
2020-Jan-17 05:42 070 14 gusting 24 -8.2
2020-Jan-17 05:32 070 13 gusting 28 -8.3
2020-Jan-17 05:22 060 17 gusting 27 -8.4
2020-Jan-17 05:12 060 13 gusting 27 -8.4
2020-Jan-17 05:02 070 17 gusting 29 -8.4
2020-Jan-17 04:53 050 13 gusting 25 -8.3
2020-Jan-17 04:42 080 18 gusting 29 -8.2
2020-Jan-17 04:32 040 12 gusting 20 -8.3
2020-Jan-17 04:23 060 13 gusting 25 -8.1
2020-Jan-17 04:13 070 18 gusting 25 -8.2
2020-Jan-17 04:02 050 14 gusting 29 -8.2
2020-Jan-17 03:52 070 25 gusting 40 -8.2
2020-Jan-17 03:42 070 24 gusting 40 -8.1
2020-Jan-17 03:32 070 18 gusting 32 -8.1
2020-Jan-17 03:22 060 13 gusting 27 -8.2
2020-Jan-17 03:12 070 24 gusting 34 -8.2
2020-Jan-17 03:02 070 22 gusting 34 -8.0
2020-Jan-17 02:53 070 20 gusting 35 -8.1
2020-Jan-17 02:42 070 22 gusting 32 -8.0
2020-Jan-17 02:33 080 25 gusting 40 -7.8
2020-Jan-17 02:22 060 14 gusting 20 -8.0
2020-Jan-17 02:13 080 20 gusting 34 -7.9
2020-Jan-17 02:02 070 21 gusting 33 -7.9
2020-Jan-17 01:52 070 20 gusting 32 -7.8
2020-Jan-17 01:42 070 14 gusting 29 -7.9
2020-Jan-17 01:33 080 20 gusting 40 -7.6
2020-Jan-17 01:23 070 19 gusting 29 -7.9
2020-Jan-17 01:13 080 18 gusting 33 -7.8
2020-Jan-17 01:02 070 20 gusting 33 -7.8
2020-Jan-17 00:52 070 17 gusting 36 -7.8
2020-Jan-17 00:42 060 13 gusting 20 -7.8
2020-Jan-17 00:32 050 15 gusting 22 -7.7
2020-Jan-17 00:22 060 17 gusting 33 -7.7
2020-Jan-17 00:12 060 17 gusting 25 -7.6
2020-Jan-16 23:53 070 26 gusting 44 -7.5
2020-Jan-16 23:42 060 17 gusting 34 -7.8
2020-Jan-16 23:32 070 19 gusting 28 -7.5
2020-Jan-16 23:22 060 13 gusting 22 -7.6
2020-Jan-16 23:12 060 19 gusting 29 -7.9
2020-Jan-16 23:02 070 25 gusting 36 -7.7
2020-Jan-16 22:52 080 20 gusting 29 -7.6
2020-Jan-16 22:42 080 26 gusting 35 -7.4
2020-Jan-16 22:33 060 19 gusting 34 -7.5
2020-Jan-16 22:23 060 28 gusting 40 -7.5
2020-Jan-16 22:13 060 24 gusting 36 -7.5
2020-Jan-16 22:03 060 24 gusting 41 -7.4
2020-Jan-16 21:53 070 25 gusting 39 -7.6
2020-Jan-16 21:43 060 22 gusting 34 -7.6
2020-Jan-16 21:33 070 24 gusting 34 -7.5
2020-Jan-16 21:23 080 27 gusting 41 -7.5
2020-Jan-16 21:13 070 31 gusting 44 -7.3
2020-Jan-16 21:03 070 32 gusting 42 -7.4
2020-Jan-16 20:53 070 29 gusting 42 -7.4
2020-Jan-16 20:43 070 27 gusting 39 -7.4
2020-Jan-16 20:33 070 26 gusting 39 -7.5
2020-Jan-16 20:23 070 27 gusting 35 -7.4
2020-Jan-16 20:13 070 27 gusting 41 -7.6
2020-Jan-16 20:03 070 28 gusting 46 -7.4
2020-Jan-16 19:53 060 25 gusting 41 -7.5
2020-Jan-16 19:43 070 20 gusting 41 -7.5
2020-Jan-16 19:33 060 26 gusting 41 -7.7
2020-Jan-16 19:23 060 24 gusting 41 -7.4
2020-Jan-16 19:13 060 26 gusting 38 -7.5
2020-Jan-16 19:03 070 28 gusting 40 -7.6
2020-Jan-16 18:53 070 34 gusting 53 -7.6
2020-Jan-16 18:43 070 28 gusting 42 -7.7
2020-Jan-16 18:33 070 33 gusting 47 -7.4
2020-Jan-16 18:23 070 34 gusting 46 -7.4
2020-Jan-16 18:13 070 27 gusting 44 -7.5
2020-Jan-16 18:03 060 26 gusting 40 -7.7
2020-Jan-16 17:53 060 28 gusting 40 -7.6
2020-Jan-16 17:43 060 31 gusting 46 -7.6
2020-Jan-16 17:33 070 28 gusting 40 -7.6
2020-Jan-16 17:23 060 25 gusting 36 -7.7
2020-Jan-16 17:13 060 27 gusting 42 -7.5
2020-Jan-16 17:03 060 33 gusting 51 -7.3
2020-Jan-16 16:53 060 22 gusting 42 -7.3
2020-Jan-16 16:43 060 34 gusting 55 -7.5
2020-Jan-16 16:33 050 31 gusting 53 -7.4
2020-Jan-16 16:23 060 25 gusting 40 -7.5
2020-Jan-16 16:13 070 28 gusting 54 -7.6
2020-Jan-16 16:03 060 25 gusting 39 -7.5
2020-Jan-16 15:53 060 31 gusting 49 -7.4
2020-Jan-16 15:43 070 38 gusting 55 -7.5
2020-Jan-16 15:33 050 34 gusting 53 -7.5
2020-Jan-16 15:22 050 17 gusting 27 -7.7
2020-Jan-16 15:13 070 22 gusting 39 -7.5
2020-Jan-16 15:03 050 27 gusting 36 -7.4
2020-Jan-16 14:53 050 29 gusting 56 -7.4
2020-Jan-16 14:43 050 35 gusting 54 -7.4
2020-Jan-16 14:33 060 29 gusting 56 -7.4
2020-Jan-16 14:23 070 26 gusting 41 -7.5
2020-Jan-16 14:13 070 26 gusting 41 -7.3
2020-Jan-16 14:03 060 22 gusting 34 -7.5